sensor_id;sensor_type;location;lat;lon;timestamp;pressure;altitude;pressure_sealevel;temperature;humidity
76297;BME280;65104;52.994;6.552;2023-09-19T00:01:07;100475.50;;;14.11;100.00
76297;BME280;65104;52.994;6.552;2023-09-19T00:03:36;100472.91;;;14.08;100.00
76297;BME280;65104;52.994;6.552;2023-09-19T00:06:03;100470.31;;;14.08;100.00
76297;BME280;65104;52.994;6.552;2023-09-19T00:08:30;100474.66;;;14.03;100.00
76297;BME280;65104;52.994;6.552;2023-09-19T00:10:56;100479.81;;;14.03;100.00
76297;BME280;65104;52.994;6.552;2023-09-19T00:13:21;100469.50;;;13.92;100.00
76297;BME280;65104;52.994;6.552;2023-09-19T00:15:48;100470.34;;;13.88;100.00
76297;BME280;65104;52.994;6.552;2023-09-19T00:18:14;100474.63;;;13.87;100.00
76297;BME280;65104;52.994;6.552;2023-09-19T00:20:41;100478.97;;;13.85;100.00
76297;BME280;65104;52.994;6.552;2023-09-19T00:23:07;100484.97;;;13.81;100.00
76297;BME280;65104;52.994;6.552;2023-09-19T00:25:36;100490.16;;;13.84;100.00
76297;BME280;65104;52.994;6.552;2023-09-19T00:28:02;100500.47;;;13.75;100.00
76297;BME280;65104;52.994;6.552;2023-09-19T00:30:28;100494.44;;;13.66;100.00
76297;BME280;65104;52.994;6.552;2023-09-19T00:32:54;100494.44;;;13.66;100.00
76297;BME280;65104;52.994;6.552;2023-09-19T00:35:20;100493.59;;;13.59;100.00
76297;BME280;65104;52.994;6.552;2023-09-19T00:37:45;100507.34;;;13.60;100.00
76297;BME280;65104;52.994;6.552;2023-09-19T00:40:11;100501.31;;;13.55;100.00
76297;BME280;65104;52.994;6.552;2023-09-19T00:42:44;100507.31;;;13.53;100.00
76297;BME280;65104;52.994;6.552;2023-09-19T00:45:12;100503.91;;;13.50;100.00
76297;BME280;65104;52.994;6.552;2023-09-19T00:47:42;100509.91;;;13.50;100.00
76297;BME280;65104;52.994;6.552;2023-09-19T00:50:10;100509.91;;;13.49;100.00
76297;BME280;65104;52.994;6.552;2023-09-19T00:52:38;100507.28;;;13.43;100.00
76297;BME280;65104;52.994;6.552;2023-09-19T00:55:06;100513.31;;;13.39;100.00
76297;BME280;65104;52.994;6.552;2023-09-19T00:57:32;100520.19;;;13.38;100.00
76297;BME280;65104;52.994;6.552;2023-09-19T00:59:58;100527.94;;;13.43;100.00
76297;BME280;65104;52.994;6.552;2023-09-19T01:02:25;100520.19;;;13.38;100.00
76297;BME280;65104;52.994;6.552;2023-09-19T01:04:54;100525.34;;;13.38;100.00
76297;BME280;65104;52.994;6.552;2023-09-19T01:07:20;100525.31;;;13.34;100.00
76297;BME280;65104;52.994;6.552;2023-09-19T01:09:48;100537.38;;;13.29;100.00
76297;BME280;65104;52.994;6.552;2023-09-19T01:12:16;100537.34;;;13.26;100.00
76297;BME280;65104;52.994;6.552;2023-09-19T01:14:59;100531.34;;;13.24;100.00
76297;BME280;65104;52.994;6.552;2023-09-19T01:17:33;100545.94;;;13.25;100.00
76297;BME280;65104;52.994;6.552;2023-09-19T01:25:28;100545.91;;;13.19;100.00
76297;BME280;65104;52.994;6.552;2023-09-19T01:30:52;100549.28;;;13.07;100.00
76297;BME280;65104;52.994;6.552;2023-09-19T01:33:23;100546.72;;;13.04;100.00
76297;BME280;65104;52.994;6.552;2023-09-19T01:35:48;100558.72;;;13.06;100.00
76297;BME280;65104;52.994;6.552;2023-09-19T01:38:15;100554.41;;;13.01;100.00
76297;BME280;65104;52.994;6.552;2023-09-19T01:40:42;100558.72;;;13.00;100.00
76297;BME280;65104;52.994;6.552;2023-09-19T01:43:16;100557.00;;;12.96;100.00
76297;BME280;65104;52.994;6.552;2023-09-19T01:51:14;100559.56;;;12.95;100.00
76297;BME280;65104;52.994;6.552;2023-09-19T01:54:01;100558.69;;;12.94;100.00
76297;BME280;65104;52.994;6.552;2023-09-19T01:56:32;100568.13;;;12.94;100.00
76297;BME280;65104;52.994;6.552;2023-09-19T01:59:06;100556.94;;;12.90;100.00
76297;BME280;65104;52.994;6.552;2023-09-19T02:01:32;100562.09;;;12.86;100.00
76297;BME280;65104;52.994;6.552;2023-09-19T02:03:59;100565.50;;;12.83;100.00
76297;BME280;65104;52.994;6.552;2023-09-19T02:06:24;100571.50;;;12.79;100.00
76297;BME280;65104;52.994;6.552;2023-09-19T02:08:50;100562.88;;;12.75;100.00
76297;BME280;65104;52.994;6.552;2023-09-19T02:11:15;100567.16;;;12.72;100.00
76297;BME280;65104;52.994;6.552;2023-09-19T02:13:41;100572.31;;;12.72;100.00
76297;BME280;65104;52.994;6.552;2023-09-19T02:16:07;100570.59;;;12.74;100.00
76297;BME280;65104;52.994;6.552;2023-09-19T02:18:34;100576.63;;;12.74;100.00
76297;BME280;65104;52.994;6.552;2023-09-19T02:21:01;100573.22;;;12.77;100.00
76297;BME280;65104;52.994;6.552;2023-09-19T02:23:26;100567.16;;;12.73;100.00
76297;BME280;65104;52.994;6.552;2023-09-19T02:25:53;100570.56;;;12.68;100.00
76297;BME280;65104;52.994;6.552;2023-09-19T02:28:18;100572.31;;;12.69;100.00
76297;BME280;65104;52.994;6.552;2023-09-19T02:30:47;100580.88;;;12.68;100.00
76297;BME280;65104;52.994;6.552;2023-09-19T02:33:13;100584.31;;;12.67;100.00
76297;BME280;65104;52.994;6.552;2023-09-19T02:35:39;100575.72;;;12.68;100.00
76297;BME280;65104;52.994;6.552;2023-09-19T02:38:04;100574.03;;;12.70;100.00
76297;BME280;65104;52.994;6.552;2023-09-19T02:40:31;100586.06;;;12.72;100.00
76297;BME280;65104;52.994;6.552;2023-09-19T02:43:00;100582.59;;;12.69;100.00
76297;BME280;65104;52.994;6.552;2023-09-19T02:45:27;100572.28;;;12.66;100.00
76297;BME280;65104;52.994;6.552;2023-09-19T02:47:52;100574.91;;;12.70;100.00
76297;BME280;65104;52.994;6.552;2023-09-19T02:50:18;100575.72;;;12.71;100.00
76297;BME280;65104;52.994;6.552;2023-09-19T02:52:44;100570.56;;;12.66;100.00
76297;BME280;65104;52.994;6.552;2023-09-19T02:55:11;100575.72;;;12.68;100.00
76297;BME280;65104;52.994;6.552;2023-09-19T02:57:37;100573.16;;;12.72;100.00
76297;BME280;65104;52.994;6.552;2023-09-19T03:00:07;100580.88;;;12.68;100.00
76297;BME280;65104;52.994;6.552;2023-09-19T03:02:35;100580.88;;;12.68;100.00
76297;BME280;65104;52.994;6.552;2023-09-19T03:05:01;100580.03;;;12.67;100.00
76297;BME280;65104;52.994;6.552;2023-09-19T03:07:28;100576.56;;;12.65;100.00
76297;BME280;65104;52.994;6.552;2023-09-19T03:09:53;100587.75;;;12.69;100.00
76297;BME280;65104;52.994;6.552;2023-09-19T03:12:20;100580.88;;;12.68;100.00
76297;BME280;65104;52.994;6.552;2023-09-19T03:14:45;100577.44;;;12.72;100.00
76297;BME280;65104;52.994;6.552;2023-09-19T03:17:11;100581.78;;;12.81;100.00
76297;BME280;65104;52.994;6.552;2023-09-19T03:19:36;100564.59;;;12.79;100.00
76297;BME280;65104;52.994;6.552;2023-09-19T03:22:04;100574.94;;;12.78;100.00
76297;BME280;65104;52.994;6.552;2023-09-19T03:24:29;100570.69;;;12.86;100.00
76297;BME280;65104;52.994;6.552;2023-09-19T03:26:57;100572.41;;;12.90;100.00
76297;BME280;65104;52.994;6.552;2023-09-19T03:29:22;100574.09;;;12.85;100.00
76297;BME280;65104;52.994;6.552;2023-09-19T03:31:48;100574.09;;;12.85;100.00
76297;BME280;65104;52.994;6.552;2023-09-19T03:34:13;100581.84;;;12.85;100.00
76297;BME280;65104;52.994;6.552;2023-09-19T03:36:39;100587.84;;;12.84;100.00
76297;BME280;65104;52.994;6.552;2023-09-19T03:39:06;100605.00;;;12.84;100.00
76297;BME280;65104;52.994;6.552;2023-09-19T03:41:31;100606.72;;;12.83;100.00
76297;BME280;65104;52.994;6.552;2023-09-19T03:43:58;100587.81;;;12.83;100.00
76297;BME280;65104;52.994;6.552;2023-09-19T03:46:24;100591.28;;;12.86;100.00
76297;BME280;65104;52.994;6.552;2023-09-19T03:48:50;100588.69;;;12.82;100.00
76297;BME280;65104;52.994;6.552;2023-09-19T03:51:15;100587.78;;;12.79;100.00
76297;BME280;65104;52.994;6.552;2023-09-19T03:54:08;100587.78;;;12.75;100.00
76297;BME280;65104;52.994;6.552;2023-09-19T03:56:34;100579.22;;;12.76;100.00
76297;BME280;65104;52.994;6.552;2023-09-19T03:58:59;100582.66;;;12.78;100.00
76297;BME280;65104;52.994;6.552;2023-09-19T04:01:25;100580.94;;;12.75;100.00
76297;BME280;65104;52.994;6.552;2023-09-19T04:03:52;100583.47;;;12.72;100.00
76297;BME280;65104;52.994;6.552;2023-09-19T04:06:18;100580.94;;;12.77;100.00
76297;BME280;65104;52.994;6.552;2023-09-19T04:08:44;100581.81;;;12.79;100.00
76297;BME280;65104;52.994;6.552;2023-09-19T04:11:10;100586.97;;;12.82;100.00
76297;BME280;65104;52.994;6.552;2023-09-19T04:13:36;100588.66;;;12.80;100.00
76297;BME280;65104;52.994;6.552;2023-09-19T04:16:02;100591.28;;;12.83;100.00
76297;BME280;65104;52.994;6.552;2023-09-19T04:18:32;100599.00;;;12.85;100.00
76297;BME280;65104;52.994;6.552;2023-09-19T04:20:59;100591.28;;;12.85;100.00
76297;BME280;65104;52.994;6.552;2023-09-19T04:23:27;100593.88;;;12.91;100.00
76297;BME280;65104;52.994;6.552;2023-09-19T04:25:53;100601.63;;;12.88;100.00
76297;BME280;65104;52.994;6.552;2023-09-19T04:28:18;100605.06;;;12.91;100.00
76297;BME280;65104;52.994;6.552;2023-09-19T04:30:44;100611.97;;;13.01;100.00
76297;BME280;65104;52.994;6.552;2023-09-19T04:33:09;100618.88;;;13.02;100.00
76297;BME280;65104;52.994;6.552;2023-09-19T04:35:35;100629.19;;;13.08;100.00
76297;BME280;65104;52.994;6.552;2023-09-19T04:38:00;100635.22;;;13.10;100.00
76297;BME280;65104;52.994;6.552;2023-09-19T04:40:26;100635.25;;;13.12;100.00
76297;BME280;65104;52.994;6.552;2023-09-19T04:42:55;100637.00;;;13.18;100.00
76297;BME280;65104;52.994;6.552;2023-09-19T04:45:25;100624.13;;;13.14;100.00
76297;BME280;65104;52.994;6.552;2023-09-19T04:47:54;100642.09;;;13.10;100.00
76297;BME280;65104;52.994;6.552;2023-09-19T04:50:20;100651.56;;;13.12;100.00
76297;BME280;65104;52.994;6.552;2023-09-19T04:52:50;100647.31;;;13.18;100.00
76297;BME280;65104;52.994;6.552;2023-09-19T04:55:17;100637.00;;;13.18;100.00
76297;BME280;65104;52.994;6.552;2023-09-19T04:57:46;100637.81;;;13.12;100.00
76297;BME280;65104;52.994;6.552;2023-09-19T05:00:22;100645.59;;;13.13;100.00
76297;BME280;65104;52.994;6.552;2023-09-19T05:02:50;100634.44;;;13.14;100.00
76297;BME280;65104;52.994;6.552;2023-09-19T05:05:17;100637.78;;;13.09;100.00
76297;BME280;65104;52.994;6.552;2023-09-19T05:07:44;100642.94;;;13.07;100.00
76297;BME280;65104;52.994;6.552;2023-09-19T05:10:10;100643.81;;;13.11;100.00
76297;BME280;65104;52.994;6.552;2023-09-19T05:12:36;100644.69;;;13.10;100.00
76297;BME280;65104;52.994;6.552;2023-09-19T05:15:05;100644.66;;;13.08;100.00
76297;BME280;65104;52.994;6.552;2023-09-19T05:17:34;100639.50;;;13.08;100.00
76297;BME280;65104;52.994;6.552;2023-09-19T05:20:00;100654.97;;;13.08;100.00
76297;BME280;65104;52.994;6.552;2023-09-19T05:22:40;100636.94;;;13.05;100.00
76297;BME280;65104;52.994;6.552;2023-09-19T05:25:06;100636.91;;;13.04;100.00
76297;BME280;65104;52.994;6.552;2023-09-19T05:27:32;100638.59;;;12.96;100.00
76297;BME280;65104;52.994;6.552;2023-09-19T05:29:58;100641.19;;;13.00;100.00
76297;BME280;65104;52.994;6.552;2023-09-19T05:32:24;100642.06;;;13.04;100.00
76297;BME280;65104;52.994;6.552;2023-09-19T05:34:49;100648.09;;;13.03;100.00
76297;BME280;65104;52.994;6.552;2023-09-19T05:37:18;100651.53;;;13.03;100.00
76297;BME280;65104;52.994;6.552;2023-09-19T05:39:43;100657.56;;;13.08;100.00
76297;BME280;65104;52.994;6.552;2023-09-19T05:42:08;100654.97;;;13.07;100.00
76297;BME280;65104;52.994;6.552;2023-09-19T05:44:34;100648.06;;;13.01;100.00
76297;BME280;65104;52.994;6.552;2023-09-19T05:47:02;100651.50;;;13.02;100.00
76297;BME280;65104;52.994;6.552;2023-09-19T05:49:28;100659.22;;;12.99;100.00
76297;BME280;65104;52.994;6.552;2023-09-19T05:51:53;100654.94;;;13.02;100.00
76297;BME280;65104;52.994;6.552;2023-09-19T05:54:20;100650.69;;;13.04;100.00
76297;BME280;65104;52.994;6.552;2023-09-19T05:56:45;100663.59;;;13.10;100.00
76297;BME280;65104;52.994;6.552;2023-09-19T05:59:12;100655.91;;;13.13;100.00
76297;BME280;65104;52.994;6.552;2023-09-19T06:01:41;100657.56;;;13.08;100.00
76297;BME280;65104;52.994;6.552;2023-09-19T06:04:07;100666.22;;;13.13;100.00
76297;BME280;65104;52.994;6.552;2023-09-19T06:06:32;100668.72;;;13.07;100.00
76297;BME280;65104;52.994;6.552;2023-09-19T06:09:04;100679.06;;;13.10;100.00
76297;BME280;65104;52.994;6.552;2023-09-19T06:11:31;100673.91;;;13.10;100.00
76297;BME280;65104;52.994;6.552;2023-09-19T06:13:59;100678.22;;;13.11;100.00
76297;BME280;65104;52.994;6.552;2023-09-19T06:16:27;100680.84;;;13.14;100.00
76297;BME280;65104;52.994;6.552;2023-09-19T06:18:53;100684.28;;;13.13;100.00
76297;BME280;65104;52.994;6.552;2023-09-19T06:21:23;100673.97;;;13.17;100.00
76297;BME280;65104;52.994;6.552;2023-09-19T06:23:49;100676.53;;;13.17;100.00
76297;BME280;65104;52.994;6.552;2023-09-19T06:26:14;100676.56;;;13.21;100.00
76297;BME280;65104;52.994;6.552;2023-09-19T06:28:40;100692.06;;;13.23;100.00
76297;BME280;65104;52.994;6.552;2023-09-19T06:31:06;100696.31;;;13.19;100.00
76297;BME280;65104;52.994;6.552;2023-09-19T06:33:35;100692.84;;;13.15;100.00
76297;BME280;65104;52.994;6.552;2023-09-19T06:36:03;100697.19;;;13.18;100.00
76297;BME280;65104;52.994;6.552;2023-09-19T06:38:30;100686.88;;;13.15;100.00
76297;BME280;65104;52.994;6.552;2023-09-19T06:40:56;100687.72;;;13.14;100.00
76297;BME280;65104;52.994;6.552;2023-09-19T06:43:22;100688.53;;;13.13;100.00
76297;BME280;65104;52.994;6.552;2023-09-19T06:45:49;100688.59;;;13.21;100.00
76297;BME280;65104;52.994;6.552;2023-09-19T06:48:15;100688.59;;;13.21;100.00
76297;BME280;65104;52.994;6.552;2023-09-19T06:50:41;100686.06;;;13.24;100.00
76297;BME280;65104;52.994;6.552;2023-09-19T06:53:06;100688.59;;;13.21;100.00
76297;BME280;65104;52.994;6.552;2023-09-19T06:55:32;100686.88;;;13.24;100.00
76297;BME280;65104;52.994;6.552;2023-09-19T06:57:57;100688.63;;;13.24;100.00
76297;BME280;65104;52.994;6.552;2023-09-19T07:00:24;100671.41;;;13.24;100.00
76297;BME280;65104;52.994;6.552;2023-09-19T07:03:07;100681.75;;;13.27;100.00
76297;BME280;65104;52.994;6.552;2023-09-19T07:05:37;100686.06;;;13.30;100.00
76297;BME280;65104;52.994;6.552;2023-09-19T07:08:05;100677.44;;;13.25;100.00
76297;BME280;65104;52.994;6.552;2023-09-19T07:10:32;100687.78;;;13.28;100.00
76297;BME280;65104;52.994;6.552;2023-09-19T07:15:24;100694.75;;;13.41;100.00
76297;BME280;65104;52.994;6.552;2023-09-19T07:17:54;100695.59;;;13.44;100.00
76297;BME280;65104;52.994;6.552;2023-09-19T07:20:21;100685.25;;;13.43;100.00
76297;BME280;65104;52.994;6.552;2023-09-19T07:22:47;100693.03;;;13.46;100.00
76297;BME280;65104;52.994;6.552;2023-09-19T07:25:15;100690.47;;;13.53;100.00
76297;BME280;65104;52.994;6.552;2023-09-19T07:27:41;100696.53;;;13.63;100.00
76297;BME280;65104;52.994;6.552;2023-09-19T07:30:07;100687.97;;;13.67;100.00
76297;BME280;65104;52.994;6.552;2023-09-19T07:32:33;100697.47;;;13.77;100.00
76297;BME280;65104;52.994;6.552;2023-09-19T07:35:02;100682.81;;;13.67;100.00
76297;BME280;65104;52.994;6.552;2023-09-19T07:37:29;100699.19;;;13.77;100.00
76297;BME280;65104;52.994;6.552;2023-09-19T07:39:56;100706.91;;;13.78;100.00
76297;BME280;65104;52.994;6.552;2023-09-19T07:42:22;100688.88;;;13.83;100.00
76297;BME280;65104;52.994;6.552;2023-09-19T07:44:47;100698.34;;;13.88;100.00
76297;BME280;65104;52.994;6.552;2023-09-19T07:47:16;100687.16;;;13.91;100.00
76297;BME280;65104;52.994;6.552;2023-09-19T07:49:41;100690.66;;;14.02;100.00
76297;BME280;65104;52.994;6.552;2023-09-19T07:52:10;100680.31;;;14.02;100.00
76297;BME280;65104;52.994;6.552;2023-09-19T07:54:36;100686.34;;;14.06;100.00
76297;BME280;65104;52.994;6.552;2023-09-19T07:57:02;100688.09;;;14.13;100.00
76297;BME280;65104;52.994;6.552;2023-09-19T07:59:27;100682.09;;;14.31;100.00
76297;BME280;65104;52.994;6.552;2023-09-19T08:01:53;100686.44;;;14.45;100.00
76297;BME280;65104;52.994;6.552;2023-09-19T08:04:18;100686.44;;;14.54;100.00
76297;BME280;65104;52.994;6.552;2023-09-19T08:06:44;100676.09;;;14.45;100.00
76297;BME280;65104;52.994;6.552;2023-09-19T08:09:10;100672.63;;;14.43;100.00
76297;BME280;65104;52.994;6.552;2023-09-19T08:11:36;100683.00;;;14.46;100.00
76297;BME280;65104;52.994;6.552;2023-09-19T08:14:02;100682.13;;;14.44;100.00
76297;BME280;65104;52.994;6.552;2023-09-19T08:16:27;100675.22;;;14.52;100.00
76297;BME280;65104;52.994;6.552;2023-09-19T08:18:53;100673.50;;;14.56;100.00
76297;BME280;65104;52.994;6.552;2023-09-19T08:21:21;100676.09;;;14.65;100.00
76297;BME280;65104;52.994;6.552;2023-09-19T08:23:47;100664.88;;;14.58;100.00
76297;BME280;65104;52.994;6.552;2023-09-19T08:26:12;100670.06;;;14.69;100.00
76297;BME280;65104;52.994;6.552;2023-09-19T08:28:37;100668.34;;;14.74;100.00
76297;BME280;65104;52.994;6.552;2023-09-19T08:31:07;100674.38;;;14.84;100.00
76297;BME280;65104;52.994;6.552;2023-09-19T08:33:36;100670.88;;;14.97;100.00
76297;BME280;65104;52.994;6.552;2023-09-19T08:36:03;100662.22;;;15.04;100.00
76297;BME280;65104;52.994;6.552;2023-09-19T08:38:34;100665.69;;;15.06;100.00
76297;BME280;65104;52.994;6.552;2023-09-19T08:41:00;100669.13;;;15.20;100.00
76297;BME280;65104;52.994;6.552;2023-09-19T08:43:26;100675.13;;;15.30;100.00
76297;BME280;65104;52.994;6.552;2023-09-19T08:46:12;100666.47;;;15.31;100.00
76297;BME280;65104;52.994;6.552;2023-09-19T08:49:03;100675.91;;;15.46;100.00
76297;BME280;65104;52.994;6.552;2023-09-19T08:51:51;100672.44;;;15.53;100.00
76297;BME280;65104;52.994;6.552;2023-09-19T08:54:22;100670.72;;;15.58;100.00
76297;BME280;65104;52.994;6.552;2023-09-19T08:56:53;100660.31;;;15.70;100.00
76297;BME280;65104;52.994;6.552;2023-09-19T08:59:21;100655.06;;;15.81;100.00
76297;BME280;65104;52.994;6.552;2023-09-19T09:01:50;100662.75;;;15.94;100.00
76297;BME280;65104;52.994;6.552;2023-09-19T09:04:19;100667.91;;;16.00;100.00
76297;BME280;65104;52.994;6.552;2023-09-19T09:06:45;100671.25;;;16.13;100.00
76297;BME280;65104;52.994;6.552;2023-09-19T09:09:14;100674.72;;;16.15;100.00
76297;BME280;65104;52.994;6.552;2023-09-19T09:11:40;100673.00;;;16.14;100.00
76297;BME280;65104;52.994;6.552;2023-09-19T09:14:08;100672.13;;;16.13;100.00
76297;BME280;65104;52.994;6.552;2023-09-19T09:16:34;100663.47;;;16.18;100.00
76297;BME280;65104;52.994;6.552;2023-09-19T09:18:59;100675.47;;;16.29;100.00
76297;BME280;65104;52.994;6.552;2023-09-19T09:21:25;100671.94;;;16.41;100.00
76297;BME280;65104;52.994;6.552;2023-09-19T09:23:51;100674.50;;;16.44;100.00
76297;BME280;65104;52.994;6.552;2023-09-19T09:26:43;100676.13;;;16.56;100.00
76297;BME280;65104;52.994;6.552;2023-09-19T09:29:08;100670.88;;;16.66;100.00
76297;BME280;65104;52.994;6.552;2023-09-19T09:31:33;100671.72;;;16.68;100.00
76297;BME280;65104;52.994;6.552;2023-09-19T09:33:59;100673.47;;;16.66;100.00
76297;BME280;65104;52.994;6.552;2023-09-19T09:36:35;100658.75;;;16.73;100.00
76297;BME280;65104;52.994;6.552;2023-09-19T09:39:01;100655.06;;;16.92;100.00
76297;BME280;65104;52.994;6.552;2023-09-19T09:41:41;100668.88;;;16.97;100.00
76297;BME280;65104;52.994;6.552;2023-09-19T09:44:17;100661.06;;;16.99;100.00
76297;BME280;65104;52.994;6.552;2023-09-19T09:46:47;100648.97;;;16.99;100.00
76297;BME280;65104;52.994;6.552;2023-09-19T09:49:25;100648.22;;;16.85;100.00
76297;BME280;65104;52.994;6.552;2023-09-19T09:52:04;100653.31;;;16.96;100.00
76297;BME280;65104;52.994;6.552;2023-09-19T09:54:33;100649.75;;;17.04;100.00
76297;BME280;65104;52.994;6.552;2023-09-19T09:57:05;100666.22;;;17.02;100.00
76297;BME280;65104;52.994;6.552;2023-09-19T09:59:47;100656.69;;;17.04;100.00
76297;BME280;65104;52.994;6.552;2023-09-19T10:02:13;100652.16;;;17.21;100.00
76297;BME280;65104;52.994;6.552;2023-09-19T10:04:39;100652.16;;;17.21;100.00
76297;BME280;65104;52.994;6.552;2023-09-19T10:07:27;100642.66;;;17.21;100.00
76297;BME280;65104;52.994;6.552;2023-09-19T10:09:57;100637.38;;;17.29;100.00
76297;BME280;65104;52.994;6.552;2023-09-19T10:12:31;100670.31;;;17.24;100.00
76297;BME280;65104;52.994;6.552;2023-09-19T10:15:02;100653.88;;;17.25;100.00
76297;BME280;65104;52.994;6.552;2023-09-19T10:17:29;100646.84;;;17.35;100.00
76297;BME280;65104;52.994;6.552;2023-09-19T10:19:57;100643.28;;;17.43;100.00
76297;BME280;65104;52.994;6.552;2023-09-19T10:22:30;100642.31;;;17.50;100.00
76297;BME280;65104;52.994;6.552;2023-09-19T10:24:59;100639.50;;;17.70;100.00
76297;BME280;65104;52.994;6.552;2023-09-19T10:27:25;100643.03;;;17.61;100.00
76297;BME280;65104;52.994;6.552;2023-09-19T10:29:52;100637.84;;;17.61;100.00
76297;BME280;65104;52.994;6.552;2023-09-19T10:32:22;100644.78;;;17.63;100.00
76297;BME280;65104;52.994;6.552;2023-09-19T10:34:49;100637.88;;;17.58;100.00
76297;BME280;65104;52.994;6.552;2023-09-19T10:37:16;100629.19;;;17.61;100.00
76297;BME280;65104;52.994;6.552;2023-09-19T10:39:45;100637.81;;;17.63;100.00
76297;BME280;65104;52.994;6.552;2023-09-19T10:42:14;100630.91;;;17.63;100.00
76297;BME280;65104;52.994;6.552;2023-09-19T10:44:42;100619.75;;;17.54;100.00
76297;BME280;65104;52.994;6.552;2023-09-19T10:47:10;100619.69;;;17.58;100.00
76297;BME280;65104;52.994;6.552;2023-09-19T10:49:43;100622.31;;;17.57;100.00
76297;BME280;65104;52.994;6.552;2023-09-19T10:52:13;100618.44;;;17.88;100.00
76297;BME280;65104;52.994;6.552;2023-09-19T10:54:46;100611.25;;;18.06;100.00
76297;BME280;65104;52.994;6.552;2023-09-19T10:57:21;100626.47;;;18.28;100.00
76297;BME280;65104;52.994;6.552;2023-09-19T11:00:06;100616.00;;;18.33;100.00
76297;BME280;65104;52.994;6.552;2023-09-19T11:05:35;100600.34;;;18.34;100.00
76297;BME280;65104;52.994;6.552;2023-09-19T11:08:06;100597.03;;;18.26;100.00
76297;BME280;65104;52.994;6.552;2023-09-19T11:10:51;100602.16;;;18.32;100.00
76297;BME280;65104;52.994;6.552;2023-09-19T11:26:42;100595.75;;;18.52;100.00
76297;BME280;65104;52.994;6.552;2023-09-19T11:29:29;100592.06;;;18.65;100.00
76297;BME280;65104;52.994;6.552;2023-09-19T11:31:58;100593.97;;;18.54;100.00
76297;BME280;65104;52.994;6.552;2023-09-19T11:37:03;100590.50;;;18.53;100.00
76297;BME280;65104;52.994;6.552;2023-09-19T11:39:29;100580.25;;;18.44;100.00
76297;BME280;65104;52.994;6.552;2023-09-19T11:41:55;100576.88;;;18.41;100.00
76297;BME280;65104;52.994;6.552;2023-09-19T11:46:52;100568.63;;;18.68;100.00
76297;BME280;65104;52.994;6.552;2023-09-19T11:49:19;100566.72;;;18.76;100.00
76297;BME280;65104;52.994;6.552;2023-09-19T11:51:50;100559.78;;;18.77;100.00
76297;BME280;65104;52.994;6.552;2023-09-19T11:54:19;100577.28;;;18.67;100.00
76297;BME280;65104;52.994;6.552;2023-09-19T11:56:52;100563.84;;;18.42;100.00
76297;BME280;65104;52.994;6.552;2023-09-19T11:59:26;100580.38;;;18.38;100.00
76297;BME280;65104;52.994;6.552;2023-09-19T12:01:56;100561.75;;;18.13;100.00
76297;BME280;65104;52.994;6.552;2023-09-19T12:04:41;100564.34;;;18.13;100.00
76297;BME280;65104;52.994;6.552;2023-09-19T12:07:10;100553.13;;;18.11;100.00
76297;BME280;65104;52.994;6.552;2023-09-19T12:09:42;100542.69;;;18.13;100.00
76297;BME280;65104;52.994;6.552;2023-09-19T12:12:23;100549.81;;;18.02;100.00
76297;BME280;65104;52.994;6.552;2023-09-19T12:14:50;100550.91;;;17.88;100.00
76297;BME280;65104;52.994;6.552;2023-09-19T12:17:16;100559.69;;;17.80;100.00
76297;BME280;65104;52.994;6.552;2023-09-19T12:19:55;100553.66;;;17.78;100.00
76297;BME280;65104;52.994;6.552;2023-09-19T12:22:21;100555.41;;;17.76;100.00
76297;BME280;65104;52.994;6.552;2023-09-19T12:24:47;100560.78;;;17.63;100.00
76297;BME280;65104;52.994;6.552;2023-09-19T12:27:13;100552.97;;;17.67;100.00
76297;BME280;65104;52.994;6.552;2023-09-19T12:29:49;100563.38;;;17.65;100.00
76297;BME280;65104;52.994;6.552;2023-09-19T12:32:15;100564.19;;;17.69;100.00
76297;BME280;65104;52.994;6.552;2023-09-19T12:34:42;100566.81;;;17.67;100.00
76297;BME280;65104;52.994;6.552;2023-09-19T12:37:15;100539.59;;;17.91;100.00
76297;BME280;65104;52.994;6.552;2023-09-19T12:39:46;100531.56;;;18.06;100.00
76297;BME280;65104;52.994;6.552;2023-09-19T12:42:15;100534.03;;;18.12;100.00
76297;BME280;65104;52.994;6.552;2023-09-19T12:44:45;100527.75;;;18.25;100.00
76297;BME280;65104;52.994;6.552;2023-09-19T12:47:16;100524.22;;;18.28;100.00
76297;BME280;65104;52.994;6.552;2023-09-19T12:50:11;100515.66;;;18.24;100.00
76297;BME280;65104;52.994;6.552;2023-09-19T12:52:44;100520.16;;;18.15;100.00
76297;BME280;65104;52.994;6.552;2023-09-19T12:57:59;100525.69;;;17.93;100.00
76297;BME280;65104;52.994;6.552;2023-09-19T13:00:41;100531.88;;;17.88;100.00
76297;BME280;65104;52.994;6.552;2023-09-19T13:05:58;100519.84;;;17.81;100.00
76297;BME280;65104;52.994;6.552;2023-09-19T13:08:29;100519.78;;;17.84;100.00
76297;BME280;65104;52.994;6.552;2023-09-19T13:11:06;100512.84;;;17.86;100.00
76297;BME280;65104;52.994;6.552;2023-09-19T13:13:35;100505.94;;;17.83;100.00
76297;BME280;65104;52.994;6.552;2023-09-19T13:16:02;100518.03;;;17.86;100.00
76297;BME280;65104;52.994;6.552;2023-09-19T13:18:27;100505.88;;;17.88;100.00
76297;BME280;65104;52.994;6.552;2023-09-19T13:21:06;100533.63;;;17.84;100.00
76297;BME280;65104;52.994;6.552;2023-09-19T13:23:35;100509.28;;;17.91;100.00
76297;BME280;65104;52.994;6.552;2023-09-19T13:26:03;100521.38;;;17.94;100.00
76297;BME280;65104;52.994;6.552;2023-09-19T13:28:31;100553.50;;;17.88;100.00
76297;BME280;65104;52.994;6.552;2023-09-19T13:30:56;100526.69;;;17.86;100.00